Time;durP1;ratioP1;P1;durP2;ratioP2;P2;SDS_P1;SDS_P2;PMS_P1;PMS_P2;Temp;Humidity;BMP_temperature;BMP_pressure;BME280_temperature;BME280_humidity;BME280_pressure;Samples;Min_cycle;Max_cycle;Signal;HPM_P1;HPM_P2
2024/03/08 00:04:37;;;;;;;0.63;0.63;;;5.70;98.00;;;;;;10529738;28;20200;-76
2024/03/08 00:09:40;;;;;;;0.70;0.70;;;5.70;97.90;;;;;;10529352;28;20233;-76
2024/03/08 00:14:44;;;;;;;0.70;0.70;;;5.60;97.90;;;;;;10528184;28;20631;-77
2024/03/08 00:19:47;;;;;;;0.60;0.60;;;5.60;98.10;;;;;;10539702;28;20423;-76
2024/03/08 00:24:50;;;;;;;0.70;0.70;;;5.60;98.20;;;;;;10546121;28;20249;-77
2024/03/08 00:29:54;;;;;;;0.50;0.50;;;5.60;98.00;;;;;;10544871;28;20611;-76
2024/03/08 00:34:56;;;;;;;0.67;0.67;;;5.60;97.60;;;;;;10563361;28;20268;-76
2024/03/08 00:39:58;;;;;;;0.60;0.60;;;5.60;97.60;;;;;;10541406;28;20219;-76
2024/03/08 00:45:03;;;;;;;0.50;0.50;;;5.50;97.60;;;;;;10549290;28;20192;-76
2024/03/08 00:50:06;;;;;;;0.60;0.60;;;5.40;97.60;;;;;;10572797;28;20227;-76
2024/03/08 00:55:10;;;;;;;0.60;0.60;;;5.30;97.60;;;;;;10563476;28;20622;-76
2024/03/08 01:00:15;;;;;;;0.60;0.60;;;5.30;97.60;;;;;;10534581;28;20709;-76
2024/03/08 01:05:17;;;;;;;0.60;0.60;;;5.20;97.80;;;;;;10559598;28;20249;-76
2024/03/08 01:10:19;;;;;;;0.60;0.60;;;5.10;97.90;;;;;;10540768;28;20224;-76
2024/03/08 01:15:23;;;;;;;0.60;0.60;;;5.10;98.10;;;;;;10543352;28;20228;-77
2024/03/08 01:20:26;;;;;;;0.60;0.60;;;5.10;97.80;;;;;;10573689;28;20227;-76
2024/03/08 01:25:28;;;;;;;0.60;0.60;;;5.10;97.80;;;;;;10537700;28;20196;-76
2024/03/08 01:30:36;;;;;;;0.60;0.60;;;5.00;97.70;;;;;;10573616;28;20241;-76
2024/03/08 01:35:41;;;;;;;0.60;0.60;;;5.00;97.60;;;;;;10570824;28;20676;-74
2024/03/08 01:40:43;;;;;;;0.50;0.50;;;5.00;97.60;;;;;;10545429;28;20204;-77
2024/03/08 01:45:47;;;;;;;0.57;0.57;;;5.00;97.60;;;;;;10538085;28;20204;-76
2024/03/08 01:50:50;;;;;;;0.63;0.63;;;4.80;97.60;;;;;;10571232;28;20195;-76
2024/03/08 01:55:56;;;;;;;0.73;0.73;;;4.80;97.60;;;;;;10573314;28;20226;-76
2024/03/08 02:01:04;;;;;;;0.73;0.73;;;4.80;97.70;;;;;;10535435;28;20211;-76
2024/03/08 02:06:09;;;;;;;0.60;0.60;;;4.70;97.70;;;;;;10534305;28;20207;-76
2024/03/08 02:11:12;;;;;;;0.60;0.60;;;4.60;97.90;;;;;;10546736;28;20227;-75
2024/03/08 02:16:22;;;;;;;0.70;0.70;;;4.60;97.80;;;;;;10574595;28;20207;-76
2024/03/08 02:21:26;;;;;;;0.60;0.60;;;4.60;97.80;;;;;;10539948;27;20249;-75
2024/03/08 02:26:29;;;;;;;0.60;0.60;;;4.60;98.10;;;;;;10533901;28;20220;-76
2024/03/08 02:31:31;;;;;;;0.70;0.70;;;4.60;97.70;;;;;;10569504;28;20206;-76
2024/03/08 02:36:35;;;;;;;0.73;0.73;;;4.50;97.60;;;;;;10573017;28;20222;-77
2024/03/08 02:41:37;;;;;;;0.70;0.70;;;4.50;97.70;;;;;;10569095;28;20248;-76
2024/03/08 02:46:40;;;;;;;0.70;0.70;;;4.50;97.80;;;;;;10572130;28;20268;-76
2024/03/08 02:51:43;;;;;;;0.80;0.80;;;4.50;98.00;;;;;;10540155;28;21339;-76
2024/03/08 02:56:46;;;;;;;0.50;0.50;;;4.50;97.80;;;;;;10536481;28;20227;-75
2024/03/08 03:01:48;;;;;;;0.60;0.60;;;4.50;97.70;;;;;;10567185;28;20202;-76
2024/03/08 03:06:52;;;;;;;0.60;0.60;;;4.50;97.80;;;;;;10565996;28;20227;-75
2024/03/08 03:11:55;;;;;;;0.70;0.70;;;4.50;97.80;;;;;;10560193;28;20219;-75
2024/03/08 03:16:57;;;;;;;0.70;0.70;;;4.60;97.90;;;;;;10566502;28;20218;-77
2024/03/08 03:22:03;;;;;;;0.50;0.50;;;4.70;97.50;;;;;;10541381;28;20614;-75
2024/03/08 03:27:10;;;;;;;0.60;0.60;;;4.70;97.90;;;;;;10535415;28;20689;-76
2024/03/08 03:32:12;;;;;;;0.80;0.80;;;4.80;97.90;;;;;;10565787;28;20215;-76
2024/03/08 03:37:18;;;;;;;0.80;0.80;;;4.80;97.70;;;;;;10533113;28;20228;-76
2024/03/08 03:42:20;;;;;;;0.83;0.83;;;4.90;97.60;;;;;;10564600;28;20196;-76
2024/03/08 03:47:23;;;;;;;0.70;0.70;;;4.90;97.40;;;;;;10564321;28;20237;-76
2024/03/08 03:52:26;;;;;;;0.50;0.50;;;5.00;97.40;;;;;;10542078;28;20665;-75
2024/03/08 03:57:29;;;;;;;0.80;0.80;;;5.00;97.40;;;;;;10546346;28;20219;-76
2024/03/08 04:02:32;;;;;;;0.87;0.87;;;5.00;97.20;;;;;;10569569;28;20687;-76
2024/03/08 04:07:36;;;;;;;1.10;1.10;;;5.00;97.00;;;;;;10560624;28;20681;-74
2024/03/08 04:12:38;;;;;;;0.87;0.87;;;5.00;96.80;;;;;;10566807;28;20207;-76
2024/03/08 04:17:41;;;;;;;0.90;0.90;;;5.00;96.70;;;;;;10560900;28;21030;-75
2024/03/08 04:22:48;;;;;;;0.77;0.77;;;5.00;96.30;;;;;;10565484;28;20184;-75
2024/03/08 04:27:52;;;;;;;0.90;0.90;;;5.00;96.20;;;;;;10569185;28;20288;-75
2024/03/08 04:32:54;;;;;;;1.17;1.17;;;4.90;96.10;;;;;;10563170;28;20257;-76
2024/03/08 04:37:58;;;;;;;0.90;0.90;;;4.90;96.30;;;;;;10555950;28;20223;-76
2024/03/08 04:43:00;;;;;;;1.10;1.10;;;4.80;96.30;;;;;;10563169;28;20237;-75
2024/03/08 04:48:03;;;;;;;0.80;0.80;;;4.80;96.40;;;;;;10566575;28;20268;-76
2024/03/08 04:53:07;;;;;;;0.97;0.97;;;4.80;96.30;;;;;;10556089;27;20256;-76
2024/03/08 04:58:10;;;;;;;0.80;0.80;;;4.80;96.40;;;;;;10546120;28;20609;-76
2024/03/08 05:03:12;;;;;;;0.70;0.70;;;4.80;96.40;;;;;;10556399;28;20195;-76
2024/03/08 05:08:18;;;;;;;0.70;0.70;;;4.80;96.20;;;;;;10549544;28;20216;-76
2024/03/08 05:13:20;;;;;;;0.80;0.80;;;4.80;96.30;;;;;;10557884;28;20212;-77
2024/03/08 05:18:23;;;;;;;0.80;0.80;;;4.80;96.50;;;;;;10563500;28;20218;-76
2024/03/08 05:23:26;;;;;;;0.80;0.80;;;4.80;96.40;;;;;;10553057;28;20842;-74
2024/03/08 05:28:29;;;;;;;0.70;0.70;;;4.80;96.50;;;;;;10551993;28;20215;-76
2024/03/08 05:33:31;;;;;;;0.83;0.83;;;4.80;96.20;;;;;;10554550;28;20215;-76
2024/03/08 05:38:35;;;;;;;0.70;0.70;;;4.80;96.60;;;;;;10545070;28;20215;-76
2024/03/08 05:43:37;;;;;;;0.60;0.60;;;4.70;96.50;;;;;;10550665;28;20191;-75
2024/03/08 05:48:40;;;;;;;0.80;0.80;;;4.70;96.40;;;;;;10549436;28;20272;-75
2024/03/08 05:53:43;;;;;;;0.80;0.80;;;4.70;96.40;;;;;;10527545;28;20911;-76
2024/03/08 05:58:46;;;;;;;0.70;0.70;;;4.70;96.70;;;;;;10560246;28;20614;-75
2024/03/08 06:03:50;;;;;;;0.70;0.70;;;4.60;96.60;;;;;;10551902;28;20558;-76
2024/03/08 06:08:56;;;;;;;0.60;0.60;;;4.60;96.70;;;;;;10544281;28;20268;-76
2024/03/08 06:14:00;;;;;;;0.80;0.80;;;4.70;96.50;;;;;;10550990;28;20203;-76
2024/03/08 06:19:03;;;;;;;0.60;0.60;;;4.60;96.40;;;;;;10532546;28;20229;-75
2024/03/08 06:24:07;;;;;;;0.23;0.23;;;4.60;96.40;;;;;;10528425;28;20193;-76
2024/03/08 06:29:09;;;;;;;0.63;0.63;;;4.50;96.20;;;;;;10557207;28;20227;-75
2024/03/08 06:34:11;;;;;;;0.70;0.70;;;4.50;96.30;;;;;;10546244;28;20212;-77
2024/03/08 06:39:15;;;;;;;0.60;0.60;;;4.50;96.30;;;;;;10533684;28;20223;-76
2024/03/08 06:44:17;;;;;;;0.20;0.20;;;4.40;96.60;;;;;;10539599;28;20203;-75
2024/03/08 06:49:20;;;;;;;0.20;0.20;;;4.40;96.90;;;;;;10551033;28;20277;-76
2024/03/08 06:54:24;;;;;;;0.60;0.60;;;4.50;97.20;;;;;;10542065;28;20729;-76
2024/03/08 06:59:27;;;;;;;0.40;0.40;;;4.50;97.20;;;;;;10556274;28;20614;-75
2024/03/08 07:04:29;;;;;;;0.50;0.50;;;4.70;97.40;;;;;;10565621;28;20179;-75
2024/03/08 07:09:33;;;;;;;0.57;0.57;;;4.80;97.50;;;;;;10571617;28;20212;-76
2024/03/08 07:14:40;;;;;;;0.70;0.70;;;5.00;97.70;;;;;;10565153;28;20215;-76
2024/03/08 07:19:43;;;;;;;0.60;0.60;;;5.30;97.50;;;;;;10551800;28;20220;-75
2024/03/08 07:25:04;;;;;;;0.80;0.80;;;5.50;97.60;;;;;;10537549;28;20196;-76
2024/03/08 07:30:09;;;;;;;0.77;0.77;;;5.70;97.50;;;;;;10555037;28;20246;-76
2024/03/08 07:35:12;;;;;;;0.60;0.60;;;6.00;97.30;;;;;;10579089;28;20598;-75
2024/03/08 07:40:18;;;;;;;0.60;0.60;;;6.20;96.60;;;;;;10575302;28;20226;-76
2024/03/08 07:45:21;;;;;;;0.37;0.37;;;6.30;96.50;;;;;;10579198;28;20198;-75
2024/03/08 07:50:24;;;;;;;0.40;0.40;;;6.50;96.90;;;;;;10569494;28;20656;-76
2024/03/08 07:55:28;;;;;;;0.50;0.50;;;6.60;96.10;;;;;;10540857;28;20224;-76
2024/03/08 08:00:31;;;;;;;0.57;0.57;;;6.80;96.20;;;;;;10563774;28;20240;-75
2024/03/08 08:05:35;;;;;;;0.40;0.40;;;6.90;95.80;;;;;;10580941;28;20531;-76
2024/03/08 08:10:42;;;;;;;0.50;0.50;;;7.00;95.20;;;;;;10568584;28;20199;-76
2024/03/08 08:15:45;;;;;;;0.50;0.50;;;7.10;94.10;;;;;;10579800;28;20577;-76
2024/03/08 08:20:48;;;;;;;0.40;0.40;;;7.00;93.90;;;;;;10557584;28;20200;-74
2024/03/08 08:25:51;;;;;;;0.50;0.50;;;6.90;94.00;;;;;;10540437;28;20188;-76
2024/03/08 08:30:54;;;;;;;0.50;0.50;;;6.80;94.60;;;;;;10561962;28;20200;-75
2024/03/08 08:35:56;;;;;;;0.27;0.27;;;6.80;94.50;;;;;;10576398;28;20652;-76
2024/03/08 08:41:02;;;;;;;0.40;0.40;;;6.80;94.60;;;;;;10564290;28;20256;-76
2024/03/08 08:46:04;;;;;;;0.40;0.40;;;6.90;94.80;;;;;;10574816;28;20215;-77
2024/03/08 08:51:07;;;;;;;0.40;0.40;;;7.00;95.00;;;;;;10557900;28;20212;-76
2024/03/08 08:56:12;;;;;;;0.40;0.40;;;7.20;94.30;;;;;;10542980;28;20212;-76
2024/03/08 09:01:15;;;;;;;0.30;0.30;;;7.10;93.60;;;;;;10559036;28;20199;-76
2024/03/08 09:06:18;;;;;;;0.00;0.00;;;7.00;93.80;;;;;;10571842;28;20232;-76
2024/03/08 09:11:22;;;;;;;0.30;0.30;;;7.10;94.70;;;;;;10556703;28;20199;-75
2024/03/08 09:16:24;;;;;;;0.07;0.07;;;7.20;93.90;;;;;;10569849;28;20246;-76
2024/03/08 09:21:27;;;;;;;0.30;0.30;;;7.20;94.20;;;;;;10561039;28;20192;-76
2024/03/08 09:26:31;;;;;;;0.23;0.23;;;7.20;93.80;;;;;;10545754;28;20716;-76
2024/03/08 09:31:33;;;;;;;0.20;0.20;;;7.20;94.10;;;;;;10556768;28;20192;-75
2024/03/08 09:36:36;;;;;;;0.20;0.20;;;7.10;94.00;;;;;;10565672;28;20215;-76
2024/03/08 09:41:41;;;;;;;0.40;0.40;;;7.10;94.00;;;;;;10555215;28;20232;-75
2024/03/08 09:46:43;;;;;;;0.30;0.30;;;7.20;94.40;;;;;;10565194;28;20644;-76
2024/03/08 09:51:46;;;;;;;0.37;0.37;;;7.40;94.70;;;;;;10557508;28;20822;-75
2024/03/08 09:56:52;;;;;;;0.30;0.30;;;7.50;94.20;;;;;;10564695;28;20231;-76
2024/03/08 10:01:56;;;;;;;0.40;0.40;;;7.70;94.60;;;;;;10558113;28;20245;-75
2024/03/08 10:06:59;;;;;;;0.40;0.40;;;7.80;93.70;;;;;;10549173;28;20630;-76
2024/03/08 10:12:03;;;;;;;0.40;0.40;;;7.90;94.20;;;;;;10550034;28;20191;-76
2024/03/08 10:17:06;;;;;;;0.20;0.20;;;8.10;93.80;;;;;;10558271;28;20211;-76
2024/03/08 10:22:16;;;;;;;0.40;0.40;;;8.20;93.70;;;;;;10524196;28;20211;-76
2024/03/08 10:27:20;;;;;;;0.40;0.40;;;8.30;93.20;;;;;;10538631;28;20485;-75
2024/03/08 10:32:24;;;;;;;0.37;0.37;;;8.40;92.70;;;;;;10526423;28;20200;-78
2024/03/08 10:37:29;;;;;;;0.30;0.30;;;8.50;92.60;;;;;;10551044;28;20216;-76
2024/03/08 10:42:34;;;;;;;0.30;0.30;;;8.60;92.80;;;;;;10525523;28;20199;-76
2024/03/08 10:47:42;;;;;;;0.30;0.30;;;8.60;91.80;;;;;;10552827;28;20215;-76
2024/03/08 10:52:48;;;;;;;0.30;0.30;;;8.60;92.30;;;;;;10552140;28;20200;-76
2024/03/08 10:57:53;;;;;;;0.40;0.40;;;8.70;92.00;;;;;;10553701;28;20295;-76
2024/03/08 11:02:56;;;;;;;0.20;0.20;;;8.80;91.90;;;;;;10528852;28;20225;-77
2024/03/08 11:07:59;;;;;;;0.40;0.40;;;8.90;92.50;;;;;;10529823;28;20212;-77
2024/03/08 11:13:03;;;;;;;0.30;0.30;;;9.00;92.40;;;;;;10533164;28;20726;-76
2024/03/08 11:18:10;;;;;;;0.30;0.30;;;9.10;92.30;;;;;;10528762;28;20224;-76
2024/03/08 11:23:12;;;;;;;0.40;0.40;;;9.20;92.20;;;;;;10536873;28;20458;-77
2024/03/08 11:28:19;;;;;;;0.50;0.50;;;9.30;91.70;;;;;;10531391;28;20659;-76
2024/03/08 11:33:21;;;;;;;0.40;0.40;;;9.20;91.90;;;;;;10531464;28;20648;-78
2024/03/08 11:38:24;;;;;;;0.40;0.40;;;9.10;92.30;;;;;;10549008;28;20220;-76
2024/03/08 11:43:27;;;;;;;0.30;0.30;;;9.10;91.50;;;;;;10528567;28;20192;-76
2024/03/08 11:48:31;;;;;;;0.40;0.40;;;9.00;91.80;;;;;;10530899;28;20215;-76
2024/03/08 11:53:36;;;;;;;0.40;0.40;;;8.90;92.00;;;;;;10528561;28;20260;-76
2024/03/08 11:58:40;;;;;;;0.20;0.20;;;8.80;91.70;;;;;;10536080;28;20224;-76
2024/03/08 12:03:43;;;;;;;0.40;0.40;;;8.60;91.50;;;;;;10532890;28;20225;-76
2024/03/08 12:08:49;;;;;;;0.40;0.40;;;8.30;92.30;;;;;;10548136;28;20215;-76
2024/03/08 12:13:53;;;;;;;0.40;0.40;;;8.10;92.70;;;;;;10541039;28;20207;-76
2024/03/08 12:18:57;;;;;;;0.37;0.37;;;8.10;93.40;;;;;;10578297;28;20288;-76
2024/03/08 12:24:05;;;;;;;0.30;0.30;;;8.10;93.10;;;;;;10551404;28;20200;-76
2024/03/08 12:29:22;;;;;;;0.40;0.40;;;8.10;92.90;;;;;;10538324;28;20230;-76
2024/03/08 12:34:27;;;;;;;0.43;0.43;;;8.10;93.20;;;;;;10548562;28;20209;-75
2024/03/08 12:39:31;;;;;;;0.40;0.40;;;8.10;92.90;;;;;;10572731;28;20219;-76
2024/03/08 12:44:35;;;;;;;0.30;0.30;;;8.20;93.50;;;;;;10531688;28;20204;-75
2024/03/08 12:49:37;;;;;;;0.40;0.40;;;8.30;92.80;;;;;;10541491;28;20265;-77
2024/03/08 12:54:40;;;;;;;0.40;0.40;;;8.30;93.20;;;;;;10540308;28;20220;-76
2024/03/08 12:59:44;;;;;;;0.47;0.47;;;8.40;93.70;;;;;;10539619;28;20270;-76
2024/03/08 13:04:55;;;;;;;0.30;0.30;;;8.50;93.10;;;;;;10524608;28;20196;-76
2024/03/08 13:09:59;;;;;;;0.40;0.40;;;8.50;93.10;;;;;;10532453;28;20220;-77
2024/03/08 13:15:04;;;;;;;0.40;0.40;;;8.60;93.60;;;;;;10527175;28;20212;-77
2024/03/08 13:20:09;;;;;;;0.40;0.40;;;8.60;93.70;;;;;;10523017;28;20212;-76
2024/03/08 13:25:13;;;;;;;0.40;0.40;;;8.80;93.20;;;;;;10537056;28;20192;-76
2024/03/08 13:30:18;;;;;;;0.30;0.30;;;8.80;93.00;;;;;;10542947;28;20235;-75
2024/03/08 13:35:24;;;;;;;0.30;0.30;;;8.90;92.80;;;;;;10535248;28;20208;-75
2024/03/08 13:40:26;;;;;;;0.30;0.30;;;8.90;93.20;;;;;;10537844;28;20219;-75
2024/03/08 13:45:30;;;;;;;0.43;0.43;;;8.90;93.20;;;;;;10534841;28;20204;-75
2024/03/08 13:50:32;;;;;;;0.30;0.30;;;9.00;93.20;;;;;;10541037;28;20220;-75
2024/03/08 13:55:35;;;;;;;0.40;0.40;;;9.00;93.60;;;;;;10533554;28;20223;-74
2024/03/08 14:00:41;;;;;;;0.40;0.40;;;9.10;92.80;;;;;;10537983;28;20630;-75
2024/03/08 14:05:44;;;;;;;0.40;0.40;;;9.10;93.00;;;;;;10530775;28;20200;-75
2024/03/08 14:10:46;;;;;;;0.30;0.30;;;9.10;93.80;;;;;;10533219;28;20196;-75
2024/03/08 14:15:51;;;;;;;0.33;0.33;;;9.20;92.80;;;;;;10526046;28;20273;-75
2024/03/08 14:20:54;;;;;;;0.40;0.40;;;9.30;92.40;;;;;;10525832;28;20901;-75
2024/03/08 14:25:58;;;;;;;0.40;0.40;;;9.50;91.90;;;;;;10532493;28;20704;-75
2024/03/08 14:31:03;;;;;;;0.40;0.40;;;9.50;92.40;;;;;;10523733;28;20250;-75
2024/03/08 14:36:06;;;;;;;0.50;0.50;;;9.50;92.60;;;;;;10524347;28;20228;-76
2024/03/08 14:41:08;;;;;;;0.50;0.50;;;9.60;93.00;;;;;;10539149;28;20192;-76
2024/03/08 14:46:16;;;;;;;0.30;0.30;;;9.60;93.10;;;;;;10534778;28;20261;-75
2024/03/08 14:51:21;;;;;;;0.43;0.43;;;9.60;92.60;;;;;;10533026;28;20277;-76
2024/03/08 14:56:27;;;;;;;0.50;0.50;;;9.70;92.50;;;;;;10539597;28;20220;-75
2024/03/08 15:01:32;;;;;;;0.50;0.50;;;9.80;92.30;;;;;;10535588;28;20899;-76
2024/03/08 15:06:36;;;;;;;0.40;0.40;;;9.90;92.40;;;;;;10539318;28;20264;-76
2024/03/08 15:11:39;;;;;;;0.50;0.50;;;9.90;92.50;;;;;;10534019;28;20757;-75
2024/03/08 15:16:43;;;;;;;0.27;0.27;;;10.00;91.70;;;;;;10533302;28;20212;-75
2024/03/08 15:21:48;;;;;;;0.47;0.47;;;10.00;91.90;;;;;;10528620;28;20730;-76
2024/03/08 15:26:53;;;;;;;0.50;0.50;;;10.10;91.70;;;;;;10534042;28;20223;-75
2024/03/08 15:31:58;;;;;;;0.40;0.40;;;10.20;91.60;;;;;;10554923;22;20239;-80
2024/03/08 15:37:02;;;;;;;0.40;0.40;;;10.30;91.60;;;;;;10519131;28;20235;-79
2024/03/08 15:42:05;;;;;;;0.60;0.60;;;10.30;92.20;;;;;;10482001;28;20220;-80
2024/03/08 15:47:11;;;;;;;0.50;0.50;;;10.30;91.50;;;;;;10478703;28;20484;-79
2024/03/08 15:52:14;;;;;;;0.60;0.60;;;10.40;91.60;;;;;;10500191;28;20282;-79
2024/03/08 15:57:19;;;;;;;0.57;0.57;;;10.60;91.30;;;;;;10485802;28;20209;-79
2024/03/08 16:02:24;;;;;;;0.50;0.50;;;10.60;91.50;;;;;;10501514;28;20239;-79
2024/03/08 16:07:27;;;;;;;0.20;0.20;;;10.70;91.40;;;;;;10493373;28;20197;-79
2024/03/08 16:12:29;;;;;;;0.30;0.30;;;10.70;91.30;;;;;;10495528;28;20649;-79
2024/03/08 16:17:33;;;;;;;0.50;0.50;;;10.70;91.30;;;;;;10511414;28;20217;-79
2024/03/08 16:22:35;;;;;;;0.50;0.50;;;10.70;91.20;;;;;;10505935;28;20659;-79
2024/03/08 16:27:38;;;;;;;0.50;0.50;;;10.70;91.20;;;;;;10502481;28;20282;-79
2024/03/08 16:32:43;;;;;;;0.60;0.60;;;10.80;91.10;;;;;;10500190;28;20796;-79
2024/03/08 16:37:47;;;;;;;0.50;0.50;;;10.80;90.90;;;;;;10488597;28;20231;-79
2024/03/08 16:42:51;;;;;;;0.40;0.40;;;10.80;90.70;;;;;;10505099;28;20262;-79
2024/03/08 16:47:55;;;;;;;0.60;0.60;;;10.70;90.60;;;;;;10488285;28;20211;-80
2024/03/08 16:52:58;;;;;;;0.60;0.60;;;10.70;90.50;;;;;;10493243;28;20206;-79
2024/03/08 16:58:00;;;;;;;0.60;0.60;;;10.70;90.50;;;;;;10491847;28;20649;-79
2024/03/08 17:03:06;;;;;;;0.30;0.30;;;10.60;90.70;;;;;;10496020;28;20200;-79
2024/03/08 17:08:10;;;;;;;0.40;0.40;;;10.60;90.80;;;;;;10505116;28;20208;-79
2024/03/08 17:13:14;;;;;;;0.50;0.50;;;10.40;91.10;;;;;;10509492;28;20192;-79
2024/03/08 17:18:18;;;;;;;0.60;0.60;;;10.30;91.70;;;;;;10498536;28;20229;-79
2024/03/08 17:23:21;;;;;;;0.20;0.20;;;10.10;92.10;;;;;;10503925;28;20212;-80
2024/03/08 17:28:27;;;;;;;0.60;0.60;;;10.00;92.70;;;;;;10509498;28;20227;-79
2024/03/08 17:33:34;;;;;;;0.50;0.50;;;9.80;93.30;;;;;;10494427;28;20262;-78
2024/03/08 17:38:43;;;;;;;0.20;0.20;;;9.70;93.80;;;;;;10482408;28;20656;-80
2024/03/08 17:43:47;;;;;;;0.60;0.60;;;9.60;94.10;;;;;;10473388;28;20216;-79
2024/03/08 17:48:53;;;;;;;0.60;0.60;;;9.50;94.00;;;;;;10491012;28;20210;-81
2024/03/08 17:53:56;;;;;;;0.50;0.50;;;9.40;94.10;;;;;;10479131;28;20204;-81
2024/03/08 17:58:59;;;;;;;0.47;0.47;;;9.20;94.20;;;;;;10469546;28;20233;-80
2024/03/08 18:04:02;;;;;;;0.57;0.57;;;9.20;94.10;;;;;;10480071;28;20526;-80
2024/03/08 18:09:10;;;;;;;0.60;0.60;;;9.10;94.30;;;;;;10483031;28;20212;-81
2024/03/08 18:14:13;;;;;;;0.50;0.50;;;8.90;94.40;;;;;;10504458;28;20713;-80
2024/03/08 18:19:19;;;;;;;0.47;0.47;;;8.80;94.30;;;;;;10500639;28;20221;-80
2024/03/08 18:24:21;;;;;;;0.50;0.50;;;8.70;94.40;;;;;;10479215;28;20213;-80
2024/03/08 18:29:23;;;;;;;0.70;0.70;;;8.50;94.70;;;;;;10486249;28;20746;-80
2024/03/08 18:34:27;;;;;;;0.50;0.50;;;8.40;94.80;;;;;;10510375;28;20582;-80
2024/03/08 18:39:29;;;;;;;0.50;0.50;;;8.30;94.90;;;;;;10500567;28;20251;-80
2024/03/08 18:44:32;;;;;;;0.50;0.50;;;8.30;94.60;;;;;;10495075;28;20678;-80
2024/03/08 18:49:36;;;;;;;0.20;0.20;;;8.30;94.90;;;;;;10485107;28;20626;-80
2024/03/08 18:54:38;;;;;;;0.50;0.50;;;8.20;95.00;;;;;;10482253;28;20201;-80
2024/03/08 18:59:41;;;;;;;0.50;0.50;;;8.20;94.90;;;;;;10483426;28;20232;-80
2024/03/08 19:04:45;;;;;;;0.40;0.40;;;8.20;94.70;;;;;;10497031;28;20215;-79
2024/03/08 19:09:47;;;;;;;0.60;0.60;;;8.20;94.50;;;;;;10492139;28;20216;-80
2024/03/08 19:14:51;;;;;;;0.50;0.50;;;8.20;94.30;;;;;;10475648;28;20198;-80
2024/03/08 19:19:55;;;;;;;0.43;0.43;;;8.30;94.10;;;;;;10485477;28;20228;-81
2024/03/08 19:24:57;;;;;;;0.50;0.50;;;8.30;94.20;;;;;;10516119;28;20230;-80
2024/03/08 19:30:00;;;;;;;0.53;0.53;;;8.30;93.60;;;;;;10517069;28;20229;-81
2024/03/08 19:35:10;;;;;;;0.40;0.40;;;8.30;93.50;;;;;;10483763;28;20251;-80
2024/03/08 19:40:19;;;;;;;0.27;0.27;;;8.30;93.10;;;;;;10491768;28;20739;-81
2024/03/08 19:45:25;;;;;;;0.40;0.40;;;8.30;92.70;;;;;;10490123;28;20189;-80
2024/03/08 19:50:30;;;;;;;0.40;0.40;;;8.40;91.50;;;;;;10495145;28;20208;-81
2024/03/08 19:55:33;;;;;;;0.30;0.30;;;8.40;91.50;;;;;;10506957;28;20411;-80
2024/03/08 20:00:36;;;;;;;0.40;0.40;;;8.50;91.50;;;;;;10487007;28;20228;-81
2024/03/08 20:05:42;;;;;;;0.40;0.40;;;8.40;91.80;;;;;;10507265;28;20197;-80
2024/03/08 20:10:47;;;;;;;0.40;0.40;;;8.30;92.00;;;;;;10504450;28;20702;-81
2024/03/08 20:15:53;;;;;;;0.50;0.50;;;8.20;92.20;;;;;;10493914;28;20609;-81
2024/03/08 20:20:57;;;;;;;0.40;0.40;;;8.20;92.40;;;;;;10471007;28;20278;-81
2024/03/08 20:26:01;;;;;;;0.43;0.43;;;8.10;92.50;;;;;;10477006;28;20228;-82
2024/03/08 20:31:04;;;;;;;0.40;0.40;;;8.00;92.30;;;;;;10479932;28;20232;-82
2024/03/08 20:36:09;;;;;;;0.40;0.40;;;8.00;92.40;;;;;;10505805;28;20204;-81
2024/03/08 20:41:11;;;;;;;0.10;0.10;;;7.90;92.40;;;;;;10504093;28;20236;-81
2024/03/08 20:46:15;;;;;;;0.50;0.50;;;7.80;92.50;;;;;;10480437;28;20202;-81
2024/03/08 20:51:19;;;;;;;0.43;0.43;;;7.70;92.60;;;;;;10475869;28;20740;-81
2024/03/08 20:56:21;;;;;;;0.50;0.50;;;7.60;93.00;;;;;;10500580;28;20204;-81
2024/03/08 21:01:30;;;;;;;0.50;0.50;;;7.30;92.90;;;;;;10505355;28;20221;-81
2024/03/08 21:06:34;;;;;;;0.50;0.50;;;7.20;93.10;;;;;;10479928;28;20695;-81
2024/03/08 21:11:36;;;;;;;0.50;0.50;;;7.10;93.30;;;;;;10479437;28;20216;-81
2024/03/08 21:16:41;;;;;;;0.43;0.43;;;7.00;93.50;;;;;;10497732;28;20210;-81
2024/03/08 21:21:45;;;;;;;0.50;0.50;;;6.90;93.70;;;;;;10483966;28;20764;-81
2024/03/08 21:26:52;;;;;;;0.50;0.50;;;6.80;93.70;;;;;;10501354;28;20204;-81
2024/03/08 21:31:55;;;;;;;0.30;0.30;;;6.70;93.90;;;;;;10507665;28;20236;-81
2024/03/08 21:36:59;;;;;;;0.40;0.40;;;6.70;94.00;;;;;;10490688;28;20205;-80
2024/03/08 21:42:03;;;;;;;0.40;0.40;;;6.70;94.20;;;;;;10480135;28;20212;-81
2024/03/08 21:47:05;;;;;;;0.40;0.40;;;6.60;94.30;;;;;;10500654;28;20192;-81
2024/03/08 21:52:09;;;;;;;0.40;0.40;;;6.60;94.50;;;;;;10480306;28;20220;-80
2024/03/08 21:57:11;;;;;;;0.40;0.40;;;6.50;94.40;;;;;;10499274;28;20235;-81
2024/03/08 22:02:15;;;;;;;0.40;0.40;;;6.50;94.50;;;;;;10510776;28;20225;-81
2024/03/08 22:07:18;;;;;;;0.40;0.40;;;6.40;94.60;;;;;;10497859;28;20193;-81
2024/03/08 22:12:21;;;;;;;0.30;0.30;;;6.40;94.60;;;;;;10476727;28;20239;-80
2024/03/08 22:17:24;;;;;;;0.40;0.40;;;6.40;94.90;;;;;;10488564;28;20220;-81
2024/03/08 22:22:28;;;;;;;0.40;0.40;;;6.30;95.30;;;;;;10467059;28;20283;-81
2024/03/08 22:27:32;;;;;;;0.40;0.40;;;6.30;95.20;;;;;;10484190;28;20607;-81
2024/03/08 22:32:35;;;;;;;0.40;0.40;;;6.20;95.20;;;;;;10499134;28;20232;-81
2024/03/08 22:37:39;;;;;;;0.30;0.30;;;6.30;95.30;;;;;;10483740;28;20220;-81
2024/03/08 22:42:43;;;;;;;0.30;0.30;;;6.30;95.40;;;;;;10469941;28;20225;-81
2024/03/08 22:47:46;;;;;;;0.30;0.30;;;6.30;95.50;;;;;;10488707;28;20193;-79
2024/03/08 22:52:50;;;;;;;0.50;0.50;;;6.30;95.60;;;;;;10464569;28;20228;-79
2024/03/08 22:57:52;;;;;;;0.40;0.40;;;6.30;95.60;;;;;;10476127;28;20273;-79
2024/03/08 23:02:56;;;;;;;0.50;0.50;;;6.30;95.70;;;;;;10499156;28;20673;-79
2024/03/08 23:08:03;;;;;;;0.50;0.50;;;6.40;95.70;;;;;;10492038;28;20651;-79
2024/03/08 23:13:06;;;;;;;0.60;0.60;;;6.30;95.70;;;;;;10471515;28;20203;-79
2024/03/08 23:18:10;;;;;;;0.50;0.50;;;6.30;95.80;;;;;;10494696;28;20225;-79
2024/03/08 23:23:14;;;;;;;0.50;0.50;;;6.30;96.00;;;;;;10468341;28;20193;-79
2024/03/08 23:28:17;;;;;;;0.50;0.50;;;6.30;95.70;;;;;;10478341;28;20228;-79
2024/03/08 23:33:20;;;;;;;0.40;0.40;;;6.20;95.90;;;;;;10506006;28;20251;-79
2024/03/08 23:38:24;;;;;;;0.47;0.47;;;6.20;95.90;;;;;;10496712;28;20223;-79
2024/03/08 23:43:27;;;;;;;0.50;0.50;;;6.10;95.90;;;;;;10471010;28;20682;-79
2024/03/08 23:48:30;;;;;;;0.60;0.60;;;6.10;96.00;;;;;;10478455;28;20276;-79
2024/03/08 23:53:33;;;;;;;0.57;0.57;;;6.10;96.20;;;;;;10499518;28;20215;-80
2024/03/08 23:58:36;;;;;;;0.60;0.60;;;6.10;96.20;;;;;;10477878;28;20232;-79
